createdAt,value
2022-08-08T00:00:49.968Z,3.55
2022-08-08T00:02:30.916Z,3.80
2022-08-08T00:05:09.902Z,3.70
2022-08-08T00:07:45.066Z,3.75
2022-08-08T00:10:18.534Z,3.58
2022-08-08T00:13:10.163Z,4.13
2022-08-08T00:15:57.408Z,4.10
2022-08-08T00:18:32.880Z,3.58
2022-08-08T00:21:05.380Z,3.42
2022-08-08T00:23:51.045Z,4.10
2022-08-08T00:26:30.044Z,3.22
2022-08-08T00:29:07.873Z,4.28
2022-08-08T00:32:20.873Z,3.03
2022-08-08T00:35:18.606Z,3.20
2022-08-08T00:38:02.940Z,3.60
2022-08-08T00:41:07.442Z,3.42
2022-08-08T00:44:19.966Z,3.25
2022-08-08T00:48:04.936Z,3.50
2022-08-08T00:51:21.476Z,3.35
2022-08-08T00:54:28.830Z,3.13
2022-08-08T00:57:34.416Z,3.78
2022-08-08T01:00:13.122Z,3.40
2022-08-08T01:03:59.380Z,3.45
2022-08-08T01:06:32.491Z,3.38
2022-08-08T01:09:48.792Z,3.35
2022-08-08T01:12:46.117Z,3.45
2022-08-08T01:15:54.257Z,3.22
2022-08-08T01:18:53.686Z,3.28
2022-08-08T01:22:23.123Z,3.60
2022-08-08T01:25:26.428Z,3.30
2022-08-08T01:28:18.761Z,3.60
2022-08-08T01:32:13.893Z,3.70
2022-08-08T01:35:11.854Z,3.92
2022-08-08T01:38:19.539Z,3.20
2022-08-08T01:41:01.323Z,3.67
2022-08-08T01:43:58.065Z,3.60
2022-08-08T01:46:43.132Z,3.67
2022-08-08T01:49:37.490Z,3.45
2022-08-08T01:52:40.881Z,3.50
2022-08-08T01:56:26.038Z,3.38
2022-08-08T01:58:31.957Z,3.45
2022-08-08T02:01:17.577Z,3.33
2022-08-08T02:04:10.656Z,3.22
2022-08-08T02:07:01.521Z,3.30
2022-08-08T02:10:12.137Z,3.53
2022-08-08T02:12:51.394Z,3.75
2022-08-08T02:15:38.653Z,3.42
2022-08-08T02:18:13.672Z,3.60
2022-08-08T02:21:13.442Z,3.30
2022-08-08T02:23:54.520Z,3.28
2022-08-08T02:26:29.856Z,3.58
2022-08-08T02:29:18.967Z,3.38
2022-08-08T02:32:15.800Z,3.75
2022-08-08T02:35:17.192Z,3.20
2022-08-08T02:38:37.290Z,3.65
2022-08-08T02:41:59.424Z,3.92
2022-08-08T02:45:04.004Z,3.20
2022-08-08T02:48:17.790Z,3.60
2022-08-08T02:51:46.568Z,3.17
2022-08-08T02:54:53.167Z,3.22
2022-08-08T02:57:54.971Z,3.45
2022-08-08T03:00:47.098Z,3.63
2022-08-08T03:05:04.609Z,3.35
2022-08-08T03:07:41.694Z,3.72
2022-08-08T03:10:59.380Z,3.40
2022-08-08T03:16:00.167Z,3.90
2022-08-08T03:16:48.891Z,3.13
2022-08-08T03:19:50.815Z,3.25
2022-08-08T03:22:38.034Z,3.45
2022-08-08T03:25:17.823Z,3.28
2022-08-08T03:27:56.593Z,3.35
2022-08-08T03:30:26.041Z,3.28
2022-08-08T03:33:55.619Z,3.25
2022-08-08T03:36:02.139Z,3.20
2022-08-08T03:38:54.776Z,3.40
2022-08-08T03:42:03.970Z,3.28
2022-08-08T03:44:10.315Z,3.30
2022-08-08T03:46:47.207Z,3.00
2022-08-08T03:49:57.633Z,3.45
2022-08-08T03:52:13.062Z,3.53
2022-08-08T03:55:01.446Z,3.10
2022-08-08T03:58:35.875Z,3.22
2022-08-08T04:00:26.123Z,3.20
2022-08-08T04:03:00.231Z,3.25
2022-08-08T04:05:30.198Z,3.15
2022-08-08T04:08:00.688Z,3.33
2022-08-08T04:10:31.702Z,2.90
2022-08-08T04:13:17.134Z,3.00
2022-08-08T04:16:04.217Z,3.03
2022-08-08T04:18:41.917Z,3.20
2022-08-08T04:21:13.520Z,3.05
2022-08-08T04:24:19.268Z,3.15
2022-08-08T04:26:56.736Z,2.53
2022-08-08T04:29:26.617Z,3.17
2022-08-08T04:32:00.203Z,2.95
2022-08-08T04:34:32.290Z,3.20
2022-08-08T04:37:12.544Z,3.33
2022-08-08T04:40:03.735Z,3.00
2022-08-08T04:42:33.789Z,2.83
2022-08-08T04:45:04.490Z,3.10
2022-08-08T04:47:43.248Z,3.60
2022-08-08T04:50:24.269Z,3.40
2022-08-08T04:53:00.829Z,3.38
2022-08-08T04:55:47.653Z,3.20
2022-08-08T04:58:22.551Z,3.15
2022-08-08T05:00:52.464Z,3.20
2022-08-08T05:04:10.500Z,3.20
2022-08-08T05:06:13.046Z,3.10
2022-08-08T05:08:51.515Z,3.05
2022-08-08T05:11:22.547Z,3.30
2022-08-08T05:13:58.415Z,3.40
2022-08-08T05:16:54.354Z,3.65
2022-08-08T05:20:09.994Z,3.22
2022-08-08T05:22:10.472Z,3.22
2022-08-08T05:24:40.180Z,3.75
2022-08-08T05:27:09.483Z,3.40
2022-08-08T05:29:37.918Z,3.63
2022-08-08T05:32:12.850Z,3.67
2022-08-08T05:34:47.300Z,3.50
2022-08-08T05:37:20.485Z,3.35
2022-08-08T05:39:52.725Z,3.80
2022-08-08T05:42:25.729Z,3.38
2022-08-08T05:44:55.399Z,3.35
2022-08-08T05:47:52.810Z,3.42
2022-08-08T05:50:20.364Z,3.55
2022-08-08T05:52:50.031Z,3.30
2022-08-08T05:55:18.404Z,3.70
2022-08-08T05:58:04.633Z,3.70
2022-08-08T06:00:36.404Z,3.00
2022-08-08T06:03:23.697Z,3.42
2022-08-08T06:05:58.963Z,3.63
2022-08-08T06:08:34.612Z,3.22
2022-08-08T06:11:05.412Z,3.60
2022-08-08T06:13:36.190Z,3.35
2022-08-08T06:16:19.059Z,3.47
2022-08-08T06:18:56.863Z,3.10
2022-08-08T06:21:48.677Z,3.50
2022-08-08T06:24:23.128Z,3.55
2022-08-08T06:27:05.369Z,3.15
2022-08-08T06:29:56.741Z,3.25
2022-08-08T06:32:31.393Z,3.58
2022-08-08T06:36:04.548Z,3.20
2022-08-08T06:37:55.991Z,3.20
2022-08-08T06:40:27.366Z,3.40
2022-08-08T06:43:06.424Z,3.00
2022-08-08T06:45:39.245Z,3.33
2022-08-08T06:48:08.673Z,3.25
2022-08-08T06:50:40.030Z,3.53
2022-08-08T06:53:17.066Z,3.90
2022-08-08T06:56:02.124Z,3.45
2022-08-08T06:58:33.545Z,3.10
2022-08-08T07:01:24.409Z,3.30
2022-08-08T07:04:36.782Z,3.15
2022-08-08T07:06:51.654Z,3.28
2022-08-08T07:09:26.967Z,3.30
2022-08-08T07:12:01.263Z,3.10
2022-08-08T07:14:41.069Z,3.10
2022-08-08T07:17:19.065Z,3.20
2022-08-08T07:20:04.209Z,3.42
2022-08-08T07:22:43.666Z,3.25
2022-08-08T07:25:17.299Z,2.92
2022-08-08T07:28:02.231Z,2.70
2022-08-08T07:30:36.181Z,2.83
2022-08-08T07:33:05.560Z,3.10
2022-08-08T07:38:31.084Z,3.03
2022-08-08T07:41:04.705Z,2.63
2022-08-08T07:43:37.785Z,2.83
2022-08-08T07:46:24.148Z,3.42
2022-08-08T07:48:55.658Z,3.15
2022-08-08T07:51:45.101Z,2.67
2022-08-08T07:54:26.577Z,3.30
2022-08-08T07:57:02.700Z,3.00
2022-08-08T07:59:51.027Z,2.38
2022-08-08T08:02:37.093Z,3.03
2022-08-08T08:05:15.531Z,2.97
2022-08-08T08:07:53.238Z,2.60
2022-08-08T08:10:30.575Z,2.80
2022-08-08T08:13:25.444Z,2.47
2022-08-08T08:16:12.972Z,3.95
2022-08-08T08:18:52.142Z,3.17
2022-08-08T08:21:44.059Z,2.90
2022-08-08T08:24:14.175Z,2.72
2022-08-08T08:26:52.489Z,3.47
2022-08-08T08:29:24.191Z,2.92
2022-08-08T08:31:58.169Z,3.10
2022-08-08T08:34:31.861Z,2.72
2022-08-08T08:37:03.277Z,2.97
2022-08-08T08:40:00.569Z,2.72
2022-08-08T08:42:31.719Z,2.80
2022-08-08T08:45:21.318Z,2.38
2022-08-08T08:47:54.000Z,3.03
2022-08-08T08:50:33.744Z,2.47
2022-08-08T08:53:54.462Z,2.83
2022-08-08T08:56:01.395Z,2.80
2022-08-08T08:58:35.741Z,2.60
2022-08-08T09:01:10.154Z,2.72
2022-08-08T09:03:47.799Z,2.47
2022-08-08T09:06:28.663Z,2.97
2022-08-08T09:09:26.189Z,2.90
2022-08-08T09:12:07.790Z,2.55
2022-08-08T09:14:42.373Z,3.10
2022-08-08T09:17:28.591Z,2.80
2022-08-08T09:22:01.321Z,3.10
2022-08-08T09:22:58.175Z,3.00
2022-08-08T09:25:36.140Z,2.85
2022-08-08T09:28:35.725Z,3.20
2022-08-08T09:31:12.980Z,3.03
2022-08-08T09:34:06.201Z,3.03
2022-08-08T09:36:36.063Z,3.10
2022-08-08T09:39:15.536Z,2.83
2022-08-08T09:42:20.794Z,3.30
2022-08-08T09:45:08.205Z,2.85
2022-08-08T09:48:04.344Z,3.10
2022-08-08T09:50:44.059Z,3.30
2022-08-08T09:53:23.676Z,2.67
2022-08-08T09:56:04.876Z,2.85
2022-08-08T09:58:40.722Z,2.90
2022-08-08T10:01:14.711Z,3.13
2022-08-08T10:04:04.879Z,2.63
2022-08-08T10:07:28.021Z,2.67
2022-08-08T10:10:07.034Z,3.28
2022-08-08T10:12:54.297Z,2.83
2022-08-08T10:15:28.011Z,2.95
2022-08-08T10:18:05.989Z,3.17
2022-08-08T10:20:44.573Z,2.60
2022-08-08T10:23:42.297Z,2.88
2022-08-08T10:26:30.920Z,2.88
2022-08-08T10:29:08.021Z,3.00
2022-08-08T10:32:01.014Z,2.53
2022-08-08T10:34:30.730Z,2.92
2022-08-08T10:37:02.070Z,2.90
2022-08-08T10:39:53.782Z,2.97
2022-08-08T10:42:27.952Z,2.70
2022-08-08T10:45:08.868Z,2.60
2022-08-08T10:47:43.670Z,2.40
2022-08-08T10:50:17.009Z,2.60
2022-08-08T10:52:47.787Z,2.83
2022-08-08T10:55:40.678Z,3.03
2022-08-08T10:58:08.464Z,3.25
2022-08-08T11:00:48.552Z,2.80
2022-08-08T11:03:37.088Z,2.75
2022-08-08T11:06:12.716Z,2.28
2022-08-08T11:08:53.369Z,2.72
2022-08-08T11:11:31.994Z,2.50
2022-08-08T11:14:12.326Z,2.92
2022-08-08T11:16:47.039Z,2.97
2022-08-08T11:19:17.227Z,2.30
2022-08-08T11:21:54.234Z,2.58
2022-08-08T11:24:29.154Z,2.72
2022-08-08T11:27:03.003Z,2.88
2022-08-08T11:30:04.387Z,3.03
2022-08-08T11:32:40.646Z,3.03
2022-08-08T11:35:24.861Z,2.50
2022-08-08T11:38:35.979Z,2.83
2022-08-08T11:40:52.601Z,2.67
2022-08-08T11:43:23.685Z,2.50
2022-08-08T11:46:09.603Z,2.20
2022-08-08T11:48:47.216Z,2.50
2022-08-08T11:51:30.581Z,2.35
2022-08-08T11:54:31.749Z,2.50
2022-08-08T11:56:58.473Z,2.78
2022-08-08T11:59:58.580Z,2.95
2022-08-08T12:02:33.466Z,2.45
2022-08-08T12:05:07.549Z,2.83
2022-08-08T12:07:51.443Z,2.63
2022-08-08T12:10:22.684Z,2.70
2022-08-08T12:13:02.627Z,2.53
2022-08-08T12:15:43.000Z,2.90
2022-08-08T12:18:20.854Z,2.47
2022-08-08T12:20:53.348Z,2.83
2022-08-08T12:23:40.398Z,2.60
2022-08-08T12:26:27.779Z,2.70
2022-08-08T12:29:21.628Z,2.80
2022-08-08T12:32:02.941Z,2.17
2022-08-08T12:34:36.897Z,2.50
2022-08-08T12:37:08.145Z,2.65
2022-08-08T12:39:59.846Z,3.20
2022-08-08T12:42:33.670Z,2.70
2022-08-08T12:45:07.334Z,2.22
2022-08-08T12:48:09.651Z,2.38
2022-08-08T12:50:48.087Z,2.50
2022-08-08T12:53:30.099Z,2.63
2022-08-08T12:56:17.777Z,2.35
2022-08-08T12:58:50.902Z,2.85
2022-08-08T13:01:34.654Z,2.72
2022-08-08T13:04:19.271Z,2.38
2022-08-08T13:07:02.975Z,2.30
2022-08-08T13:10:04.196Z,2.55
2022-08-08T13:12:35.621Z,2.95
2022-08-08T13:15:06.582Z,2.63
2022-08-08T13:18:08.644Z,2.25
2022-08-08T13:20:27.611Z,2.20
2022-08-08T13:25:50.430Z,2.72
2022-08-08T13:28:32.423Z,1.90
2022-08-08T13:31:03.965Z,2.67
2022-08-08T13:33:42.629Z,2.83
2022-08-08T13:36:12.394Z,2.40
2022-08-08T13:38:42.319Z,2.45
2022-08-08T13:41:16.618Z,2.65
2022-08-08T13:43:50.680Z,2.30
2022-08-08T13:46:28.466Z,2.28
2022-08-08T13:50:33.885Z,2.33
2022-08-08T13:51:57.886Z,2.40
2022-08-08T13:54:31.128Z,2.20
2022-08-08T13:57:08.823Z,1.92
2022-08-08T13:59:48.370Z,2.10
2022-08-08T14:02:23.107Z,2.15
2022-08-08T14:05:09.431Z,2.65
2022-08-08T14:07:52.610Z,2.20
2022-08-08T14:10:33.779Z,2.30
2022-08-08T14:13:31.011Z,2.20
2022-08-08T14:16:15.823Z,2.38
2022-08-08T14:18:53.614Z,2.30
2022-08-08T14:21:39.966Z,2.30
2022-08-08T14:24:31.425Z,2.17
2022-08-08T14:27:01.966Z,2.47
2022-08-08T14:29:39.438Z,2.38
2022-08-08T14:32:16.078Z,2.15
2022-08-08T14:34:52.733Z,2.50
2022-08-08T14:37:28.050Z,3.00
2022-08-08T14:40:19.522Z,2.03
2022-08-08T14:42:57.014Z,2.20
2022-08-08T14:46:01.532Z,2.47
2022-08-08T14:48:34.113Z,2.45
2022-08-08T14:51:07.464Z,1.95
2022-08-08T14:53:55.782Z,2.15
2022-08-08T14:56:25.620Z,2.40
2022-08-08T14:58:54.718Z,2.13
2022-08-08T15:01:37.510Z,2.20
2022-08-08T15:04:11.748Z,2.20
2022-08-08T15:06:42.511Z,1.95
2022-08-08T15:09:14.187Z,2.17
2022-08-08T15:11:46.379Z,2.50
2022-08-08T15:14:25.109Z,2.53
2022-08-08T15:16:56.908Z,1.92
2022-08-08T15:19:28.188Z,1.92
2022-08-08T15:21:58.659Z,2.40
2022-08-08T15:24:31.711Z,2.10
2022-08-08T15:27:04.112Z,2.33
2022-08-08T15:29:48.418Z,2.50
2022-08-08T15:32:20.487Z,2.25
2022-08-08T15:34:50.927Z,2.17
2022-08-08T15:37:19.384Z,1.90
2022-08-08T15:39:49.461Z,2.58
2022-08-08T15:42:32.145Z,2.00
2022-08-08T15:45:10.941Z,2.15
2022-08-08T15:47:39.305Z,1.95
2022-08-08T15:50:16.966Z,1.77
2022-08-08T15:52:48.886Z,1.90
2022-08-08T15:55:18.773Z,2.08
2022-08-08T15:57:49.254Z,2.10
2022-08-08T16:00:27.362Z,1.65
2022-08-08T16:02:59.081Z,2.80
2022-08-08T16:05:35.486Z,2.53
2022-08-08T16:08:14.866Z,2.60
2022-08-08T16:13:15.667Z,2.00
2022-08-08T16:13:45.040Z,2.05
2022-08-08T16:16:18.075Z,1.70
2022-08-08T16:18:56.369Z,2.10
2022-08-08T16:21:28.126Z,2.30
2022-08-08T16:23:58.564Z,2.10
2022-08-08T16:26:34.633Z,2.38
2022-08-08T16:29:07.939Z,2.33
2022-08-08T16:31:40.419Z,1.95
2022-08-08T16:34:09.452Z,1.80
2022-08-08T16:36:38.132Z,1.95
2022-08-08T16:39:16.764Z,1.98
2022-08-08T16:42:01.259Z,2.17
2022-08-08T16:44:33.713Z,2.17
2022-08-08T16:47:21.630Z,2.38
2022-08-08T16:49:50.301Z,2.22
2022-08-08T16:55:00.525Z,2.28
2022-08-08T16:55:42.674Z,2.20
2022-08-08T16:58:14.268Z,2.83
2022-08-08T17:00:49.203Z,2.50
2022-08-08T17:03:24.950Z,2.10
2022-08-08T17:06:03.533Z,2.28
2022-08-08T17:08:32.478Z,2.28
2022-08-08T17:11:10.405Z,2.67
2022-08-08T17:13:49.983Z,2.35
2022-08-08T17:16:29.516Z,2.92
2022-08-08T17:19:00.685Z,2.38
2022-08-08T17:21:41.183Z,2.63
2022-08-08T17:24:22.018Z,2.20
2022-08-08T17:26:59.018Z,2.28
2022-08-08T17:29:33.948Z,2.28
2022-08-08T17:32:05.989Z,2.30
2022-08-08T17:35:52.730Z,2.38
2022-08-08T17:37:27.631Z,2.60
2022-08-08T17:40:05.711Z,2.25
2022-08-08T17:42:41.701Z,2.20
2022-08-08T17:45:22.983Z,2.50
2022-08-08T17:47:53.977Z,2.20
2022-08-08T17:50:23.740Z,2.20
2022-08-08T17:52:53.128Z,2.22
2022-08-08T17:56:05.298Z,2.30
2022-08-08T17:58:11.843Z,3.13
2022-08-08T18:00:42.117Z,2.40
2022-08-08T18:03:16.052Z,2.03
2022-08-08T18:05:50.137Z,2.45
2022-08-08T18:08:24.690Z,2.10
2022-08-08T18:11:08.285Z,2.42
2022-08-08T18:13:41.885Z,2.58
2022-08-08T18:16:12.787Z,2.55
2022-08-08T18:18:42.939Z,2.72
2022-08-08T18:21:24.911Z,2.30
2022-08-08T18:24:03.215Z,2.83
2022-08-08T18:26:31.988Z,2.63
2022-08-08T18:29:01.791Z,2.60
2022-08-08T18:31:32.411Z,2.20
2022-08-08T18:34:11.745Z,2.70
2022-08-08T18:36:50.525Z,2.97
2022-08-08T18:39:27.467Z,2.70
2022-08-08T18:41:58.289Z,2.60
2022-08-08T18:44:29.538Z,2.75
2022-08-08T18:47:03.094Z,2.53
2022-08-08T18:49:54.749Z,2.67
2022-08-08T18:52:23.510Z,2.80
2022-08-08T18:55:00.587Z,2.88
2022-08-08T18:57:41.375Z,2.65
2022-08-08T19:00:16.900Z,2.97
2022-08-08T19:02:56.187Z,3.08
2022-08-08T19:05:32.444Z,2.63
2022-08-08T19:08:25.450Z,2.95
2022-08-08T19:11:01.582Z,3.00
2022-08-08T19:13:52.654Z,2.97
2022-08-08T19:16:32.126Z,2.95
2022-08-08T19:19:09.877Z,2.50
2022-08-08T19:21:48.827Z,2.80
2022-08-08T19:24:41.788Z,2.75
2022-08-08T19:27:09.051Z,2.75
2022-08-08T19:29:45.760Z,3.20
2022-08-08T19:32:21.752Z,2.85
2022-08-08T19:34:53.007Z,2.60
2022-08-08T19:37:43.883Z,2.80
2022-08-08T19:40:14.626Z,2.75
2022-08-08T19:42:47.461Z,2.60
2022-08-08T19:45:58.505Z,3.35
2022-08-08T19:48:06.050Z,2.95
2022-08-08T19:50:56.236Z,2.65
2022-08-08T19:53:54.190Z,2.90
2022-08-08T19:56:13.317Z,2.50
2022-08-08T19:58:42.646Z,3.45
2022-08-08T20:01:25.745Z,3.10
2022-08-08T20:04:03.419Z,2.97
2022-08-08T20:06:33.535Z,3.03
2022-08-08T20:09:04.662Z,2.92
2022-08-08T20:11:43.054Z,2.80
2022-08-08T20:14:34.603Z,3.15
2022-08-08T20:17:00.792Z,3.70
2022-08-08T20:19:34.237Z,3.22
2022-08-08T20:22:13.467Z,3.40
2022-08-08T20:24:55.098Z,3.42
2022-08-08T20:27:23.726Z,3.42
2022-08-08T20:30:00.440Z,3.47
2022-08-08T20:32:31.900Z,3.03
2022-08-08T20:35:02.553Z,3.08
2022-08-08T20:37:46.983Z,3.47
2022-08-08T20:40:33.538Z,3.03
2022-08-08T20:43:13.169Z,3.70
2022-08-08T20:45:54.939Z,3.40
2022-08-08T20:48:28.271Z,3.45
2022-08-08T20:50:56.850Z,3.10
2022-08-08T20:53:58.793Z,3.30
2022-08-08T20:56:15.805Z,3.35
2022-08-08T20:58:47.813Z,3.63
2022-08-08T21:01:19.868Z,3.78
2022-08-08T21:03:55.372Z,3.22
2022-08-08T21:06:52.086Z,3.20
2022-08-08T21:09:17.932Z,3.10
2022-08-08T21:11:52.035Z,3.15
2022-08-08T21:14:34.724Z,3.22
2022-08-08T21:17:06.145Z,3.22
2022-08-08T21:19:45.145Z,3.45
2022-08-08T21:22:15.559Z,2.75
2022-08-08T21:24:53.617Z,3.05
2022-08-08T21:27:38.768Z,3.00
2022-08-08T21:30:19.240Z,3.03
2022-08-08T21:32:53.317Z,3.15
2022-08-08T21:36:13.796Z,3.40
2022-08-08T21:38:16.400Z,3.28
2022-08-08T21:40:56.529Z,3.05
2022-08-08T21:43:33.479Z,3.50
2022-08-08T21:48:01.686Z,2.90
2022-08-08T21:48:53.709Z,2.97
2022-08-08T21:54:16.842Z,2.80
2022-08-08T21:54:34.460Z,2.78
2022-08-08T21:57:03.768Z,2.75
2022-08-08T22:00:01.373Z,2.85
2022-08-08T22:02:23.283Z,2.97
2022-08-08T22:04:53.215Z,3.20
2022-08-08T22:07:26.102Z,2.70
2022-08-08T22:10:03.442Z,3.53
2022-08-08T22:12:39.614Z,3.40
2022-08-08T22:15:10.419Z,3.22
2022-08-08T22:17:45.144Z,3.17
2022-08-08T22:20:23.365Z,3.05
2022-08-08T22:22:52.801Z,3.30
2022-08-08T22:25:25.709Z,3.03
2022-08-08T22:28:02.939Z,3.45
2022-08-08T22:30:43.454Z,3.17
2022-08-08T22:33:22.199Z,3.47
2022-08-08T22:36:12.441Z,3.30
2022-08-08T22:38:47.955Z,3.30
2022-08-08T22:41:21.496Z,3.42
2022-08-08T22:44:02.065Z,3.33
2022-08-08T22:46:33.103Z,3.63
2022-08-08T22:49:01.703Z,3.20
2022-08-08T22:51:35.098Z,3.33
2022-08-08T22:54:32.699Z,3.30
2022-08-08T22:56:59.627Z,3.08
2022-08-08T22:59:36.233Z,3.67
2022-08-08T23:02:19.673Z,3.20
2022-08-08T23:04:57.909Z,3.20
2022-08-08T23:07:51.886Z,3.17
2022-08-08T23:10:19.573Z,2.92
2022-08-08T23:12:51.711Z,3.10
2022-08-08T23:16:38.946Z,3.28
2022-08-08T23:18:11.511Z,3.17
2022-08-08T23:20:40.633Z,3.33
2022-08-08T23:23:08.994Z,2.97
2022-08-08T23:25:48.218Z,3.22
2022-08-08T23:28:19.145Z,2.90
2022-08-08T23:30:49.059Z,2.95
2022-08-08T23:33:21.258Z,3.30
2022-08-08T23:36:09.184Z,3.00
2022-08-08T23:38:44.247Z,3.03
2022-08-08T23:41:22.993Z,3.30
2022-08-08T23:43:56.393Z,2.97
2022-08-08T23:49:08.767Z,2.80
2022-08-08T23:49:18.978Z,3.20
2022-08-08T23:52:05.443Z,3.45
2022-08-08T23:54:41.354Z,3.60
2022-08-08T23:57:27.620Z,3.22
